createdAt,value
2023-11-22T00:04:43.513Z,94729.97
2023-11-22T00:09:47.617Z,94720.88
2023-11-22T00:14:50.754Z,94719.88
2023-11-22T00:19:53.977Z,94725.50
2023-11-22T00:24:56.288Z,94714.56
2023-11-22T00:29:59.113Z,94714.47
2023-11-22T00:35:01.654Z,94712.16
2023-11-22T00:40:12.149Z,94704.44
2023-11-22T00:45:14.824Z,94701.03
2023-11-22T00:50:21.087Z,94699.63
2023-11-22T00:55:23.690Z,94695.09
2023-11-22T01:00:26.065Z,94691.97
2023-11-22T01:05:28.768Z,94689.97
2023-11-22T01:10:31.308Z,94677.81
2023-11-22T01:15:33.756Z,94688.16
2023-11-22T01:20:36.277Z,94673.97
2023-11-22T01:25:38.900Z,94676.31
2023-11-22T01:30:41.104Z,94667.78
2023-11-22T01:35:43.274Z,94673.47
2023-11-22T01:40:48.976Z,94684.97
2023-11-22T01:45:51.510Z,94669.56
2023-11-22T01:50:53.695Z,94656.59
2023-11-22T01:55:56.123Z,94652.66
2023-11-22T02:00:59.638Z,94662.63
2023-11-22T02:06:02.079Z,94655.25
2023-11-22T02:11:04.924Z,94656.91
2023-11-22T02:16:07.994Z,94641.78
2023-11-22T02:21:10.268Z,94646.28
2023-11-22T02:26:13.283Z,94639.19
2023-11-22T02:31:16.136Z,94636.41
2023-11-22T02:36:20.694Z,94627.50
2023-11-22T02:41:23.464Z,94628.44
2023-11-22T02:46:27.560Z,94636.75
2023-11-22T02:51:30.062Z,94630.88
2023-11-22T02:56:32.345Z,94623.16
2023-11-22T03:01:36.055Z,94610.69
2023-11-22T03:06:38.503Z,94610.69
2023-11-22T03:11:40.824Z,94597.31
2023-11-22T03:16:44.143Z,94603.25
2023-11-22T03:21:47.079Z,94607.91
2023-11-22T03:26:49.302Z,94606.50
2023-11-22T03:31:51.552Z,94605.78
2023-11-22T03:36:53.774Z,94594.28
2023-11-22T03:41:56.140Z,94604.03
2023-11-22T03:46:58.543Z,94608.69
2023-11-22T03:52:00.903Z,94595.47
2023-11-22T03:57:03.518Z,94604.88
2023-11-22T04:02:06.841Z,94597.94
2023-11-22T04:07:09.664Z,94599.94
2023-11-22T04:12:12.041Z,94602.22
2023-11-22T04:17:14.347Z,94610.25
2023-11-22T04:22:17.903Z,94609.09
2023-11-22T04:27:20.109Z,94614.16
2023-11-22T04:32:26.229Z,94615.53
2023-11-22T04:37:33.578Z,94617.16
2023-11-22T04:42:37.746Z,94618.78
2023-11-22T04:47:41.356Z,94628.09
2023-11-22T04:52:43.755Z,94628.72
2023-11-22T04:57:47.231Z,94634.94
2023-11-22T05:02:49.412Z,94623.63
2023-11-22T05:07:51.822Z,94644.28
2023-11-22T05:12:54.459Z,94629.56
2023-11-22T05:17:57.358Z,94639.88
2023-11-22T05:22:59.561Z,94641.66
2023-11-22T05:28:02.113Z,94649.88
2023-11-22T05:33:04.475Z,94644.00
2023-11-22T05:38:06.770Z,94651.34
2023-11-22T05:43:12.822Z,94642.38
2023-11-22T05:48:15.359Z,94657.44
2023-11-22T05:53:21.052Z,94660.19
2023-11-22T05:58:23.661Z,94657.53
2023-11-22T06:03:26.080Z,94660.22
2023-11-22T06:08:28.488Z,94667.31
2023-11-22T06:13:30.947Z,94666.25
2023-11-22T06:18:34.658Z,94675.50
2023-11-22T06:23:37.206Z,94663.94
2023-11-22T06:28:39.482Z,94668.03
2023-11-22T06:33:41.694Z,94672.41
2023-11-22T06:38:44.405Z,94679.16
2023-11-22T06:43:46.990Z,94685.06
2023-11-22T06:48:50.843Z,94688.28
2023-11-22T06:53:56.711Z,94666.13
2023-11-22T06:59:00.098Z,94674.78
2023-11-22T07:04:05.364Z,94689.97
2023-11-22T07:09:10.899Z,94696.81
2023-11-22T07:14:13.561Z,94695.72
2023-11-22T07:19:16.309Z,94704.75
2023-11-22T07:24:19.822Z,94719.88
2023-11-22T07:29:22.681Z,94715.72
2023-11-22T07:34:24.988Z,94715.72
2023-11-22T07:39:30.683Z,94720.13
2023-11-22T07:44:34.094Z,94728.63
2023-11-22T07:49:40.660Z,94727.97
2023-11-22T07:54:42.809Z,94728.34
2023-11-22T07:59:45.133Z,94716.59
2023-11-22T08:04:49.304Z,94734.66
2023-11-22T08:09:51.882Z,94744.25
2023-11-22T08:14:56.994Z,94733.28
2023-11-22T08:20:01.395Z,94749.28
2023-11-22T08:25:05.282Z,94754.28
2023-11-22T08:30:14.842Z,94758.84
2023-11-22T08:35:17.038Z,94759.56
2023-11-22T08:40:24.949Z,94763.75
2023-11-22T08:45:30.561Z,94767.13
2023-11-22T08:50:33.150Z,94766.25
2023-11-22T08:55:35.341Z,94756.81
2023-11-22T09:00:38.272Z,94748.91
2023-11-22T09:05:41.378Z,94739.50
2023-11-22T09:10:43.903Z,94736.84
2023-11-22T09:15:46.389Z,94734.38
2023-11-22T09:20:49.604Z,94725.16
2023-11-22T09:25:52.603Z,94709.03
2023-11-22T09:30:55.115Z,94723.19
2023-11-22T09:35:57.267Z,94732.34
2023-11-22T09:41:01.056Z,94732.59
2023-11-22T09:46:04.726Z,94732.88
2023-11-22T09:51:12.909Z,94738.19
2023-11-22T09:56:15.870Z,94754.22
2023-11-22T10:01:18.744Z,94743.41
2023-11-22T10:06:21.762Z,94750.28
2023-11-22T10:11:24.016Z,94750.47
2023-11-22T10:16:26.662Z,94748.81
2023-11-22T10:21:31.943Z,94767.16
2023-11-22T10:26:36.825Z,94746.56
2023-11-22T10:31:39.580Z,94764.84
2023-11-22T10:36:42.008Z,94758.78
2023-11-22T10:41:45.231Z,94755.84
2023-11-22T10:46:48.694Z,94748.13
2023-11-22T10:51:53.625Z,94753.06
2023-11-22T10:57:04.098Z,94765.69
2023-11-22T11:02:08.312Z,94761.53
2023-11-22T11:07:16.779Z,94754.38
2023-11-22T11:12:22.576Z,94763.53
2023-11-22T11:17:25.751Z,94750.78
2023-11-22T11:22:28.781Z,94750.66
2023-11-22T11:27:35.203Z,94752.38
2023-11-22T11:32:39.648Z,94752.69
2023-11-22T11:37:42.313Z,94748.09
2023-11-22T11:42:48.427Z,94747.81
2023-11-22T11:47:51.626Z,94761.22
2023-11-22T11:52:55.167Z,94741.94
2023-11-22T11:57:57.699Z,94742.59
2023-11-22T12:03:00.888Z,94719.97
2023-11-22T12:08:03.993Z,94724.53
2023-11-22T12:13:06.592Z,94726.13
2023-11-22T12:18:09.532Z,94704.88
2023-11-22T12:23:12.909Z,94694.31
2023-11-22T12:28:20.967Z,94692.69
2023-11-22T12:33:24.868Z,94696.47
2023-11-22T12:38:30.883Z,94702.75
2023-11-22T12:43:43.735Z,94719.88
2023-11-22T12:48:53.346Z,94685.53
2023-11-22T12:54:00.000Z,94694.63
2023-11-22T12:59:02.963Z,94692.28
2023-11-22T13:04:05.860Z,94684.03
2023-11-22T13:09:21.035Z,94685.41
2023-11-22T13:14:24.711Z,94676.13
2023-11-22T13:19:32.231Z,94673.16
2023-11-22T13:24:37.558Z,94652.03
2023-11-22T13:29:45.340Z,94651.84
2023-11-22T13:34:47.523Z,94646.88
2023-11-22T13:39:56.501Z,94644.25
2023-11-22T13:45:01.714Z,94641.72
2023-11-22T13:50:05.153Z,94635.38
2023-11-22T13:55:11.955Z,94637.28
2023-11-22T14:00:20.746Z,94630.56
2023-11-22T14:05:36.337Z,94617.56
2023-11-22T14:10:42.373Z,94628.06
2023-11-22T14:15:50.409Z,94620.38
2023-11-22T14:20:57.600Z,94623.50
2023-11-22T14:26:04.143Z,94601.81
2023-11-22T14:31:09.408Z,94603.50
2023-11-22T14:36:13.576Z,94609.66
2023-11-22T14:41:15.841Z,94614.75
2023-11-22T14:46:19.108Z,94603.81
2023-11-22T14:51:21.338Z,94596.44
2023-11-22T14:56:24.417Z,94602.47
2023-11-22T15:01:27.532Z,94602.50
2023-11-22T15:06:29.760Z,94608.88
2023-11-22T15:11:32.223Z,94590.66
2023-11-22T15:16:35.116Z,94589.75
2023-11-22T15:21:37.929Z,94585.50
2023-11-22T15:26:40.259Z,94558.91
2023-11-22T15:31:42.862Z,94562.72
2023-11-22T15:36:44.836Z,94574.75
2023-11-22T15:41:47.455Z,94571.94
2023-11-22T15:46:49.694Z,94576.41
2023-11-22T15:51:52.219Z,94593.88
2023-11-22T15:56:54.735Z,94606.47
2023-11-22T16:01:57.722Z,94618.47
2023-11-22T16:07:00.075Z,94631.25
2023-11-22T16:12:02.452Z,94624.66
2023-11-22T16:17:06.045Z,94621.09
2023-11-22T16:22:08.474Z,94628.50
2023-11-22T16:27:10.759Z,94611.41
2023-11-22T16:32:13.099Z,94608.94
2023-11-22T16:37:15.369Z,94596.53
2023-11-22T16:42:21.746Z,94593.75
2023-11-22T16:47:25.444Z,94593.63
2023-11-22T16:52:30.407Z,94594.56
2023-11-22T16:57:33.748Z,94607.16
2023-11-22T17:02:37.108Z,94605.09
2023-11-22T17:07:39.328Z,94615.63
2023-11-22T17:12:41.893Z,94605.28
2023-11-22T17:17:45.160Z,94628.69
2023-11-22T17:22:47.494Z,94634.47
2023-11-22T17:27:55.102Z,94638.09
2023-11-22T17:32:58.635Z,94642.47
2023-11-22T17:38:01.968Z,94622.22
2023-11-22T17:43:04.462Z,94588.78
2023-11-22T17:48:07.196Z,94561.00
2023-11-22T17:53:09.702Z,94552.19
2023-11-22T17:58:12.822Z,94578.41
2023-11-22T18:03:15.341Z,94584.78
2023-11-22T18:08:21.142Z,94584.78
2023-11-22T18:13:23.315Z,94590.41
2023-11-22T18:18:25.749Z,94591.03
2023-11-22T18:23:29.885Z,94590.19
2023-11-22T18:28:32.199Z,94585.03
2023-11-22T18:33:35.192Z,94579.41
2023-11-22T18:38:38.014Z,94581.91
2023-11-22T18:43:40.291Z,94618.88
2023-11-22T18:48:42.795Z,94631.28
2023-11-22T18:53:45.619Z,94643.47
2023-11-22T18:58:49.023Z,94645.00
2023-11-22T19:03:52.043Z,94656.47
2023-11-22T19:09:00.280Z,94656.47
2023-11-22T19:14:04.493Z,94668.25
2023-11-22T19:19:06.970Z,94676.88
2023-11-22T19:24:09.369Z,94673.72
2023-11-22T19:29:12.520Z,94679.06
2023-11-22T19:34:17.730Z,94686.56
2023-11-22T19:39:20.933Z,94676.34
2023-11-22T19:44:23.623Z,94707.66
2023-11-22T19:49:26.338Z,94719.41
2023-11-22T19:54:28.783Z,94728.41
2023-11-22T19:59:33.448Z,94721.59
2023-11-22T20:04:36.465Z,94713.94
2023-11-22T20:09:39.043Z,94728.69
2023-11-22T20:14:41.466Z,94741.13
2023-11-22T20:19:44.261Z,94740.94
2023-11-22T20:24:47.349Z,94728.34
2023-11-22T20:29:52.232Z,94733.19
2023-11-22T20:34:55.075Z,94738.81
2023-11-22T20:39:57.657Z,94754.13
2023-11-22T20:45:00.082Z,94752.19
2023-11-22T20:50:02.411Z,94732.09
2023-11-22T20:55:09.909Z,94741.22
2023-11-22T21:00:12.949Z,94739.34
2023-11-22T21:05:18.244Z,94737.44
2023-11-22T21:10:20.892Z,94750.03
2023-11-22T21:15:24.418Z,94759.53
2023-11-22T21:20:26.727Z,94767.25
2023-11-22T21:25:28.966Z,94783.38
2023-11-22T21:30:31.772Z,94789.69
2023-11-22T21:35:34.042Z,94767.91
2023-11-22T21:40:40.411Z,94756.19
2023-11-22T21:45:51.287Z,94760.63
2023-11-22T21:50:54.070Z,94751.28
2023-11-22T21:55:56.503Z,94767.00
2023-11-22T22:00:58.685Z,94781.34
2023-11-22T22:06:01.494Z,94776.91
2023-11-22T22:11:04.635Z,94788.63
2023-11-22T22:16:07.376Z,94789.63
2023-11-22T22:21:09.885Z,94785.69
2023-11-22T22:26:12.173Z,94786.47
2023-11-22T22:31:15.824Z,94785.97
2023-11-22T22:36:19.613Z,94783.22
2023-11-22T22:41:22.922Z,94780.75
2023-11-22T22:46:25.036Z,94795.22
2023-11-22T22:51:27.694Z,94794.09
2023-11-22T22:56:30.626Z,94784.38
2023-11-22T23:01:32.948Z,94799.91
2023-11-22T23:06:37.252Z,94810.34
2023-11-22T23:11:39.656Z,94785.38
2023-11-22T23:16:42.118Z,94787.09
2023-11-22T23:21:46.151Z,94785.31
2023-11-22T23:26:49.784Z,94783.72
2023-11-22T23:31:53.580Z,94798.03
2023-11-22T23:36:56.806Z,94807.28
2023-11-22T23:41:59.365Z,94804.13
2023-11-22T23:47:02.499Z,94814.06
2023-11-22T23:52:05.199Z,94795.81
2023-11-22T23:57:07.651Z,94789.94
